Hustler, Wisconsin
Current Conditions -  °F | °C
As of 1:58 AM on Friday 19 Dec 2014 (Local Time) from KVOK Reporting Station
Overcast Overcast  
Wind Chill: 16°   Ceiling: 2400
Heat Index: 24°   Visibility: 10mi
Dew Point: 24°   Wind: 7mph
Humidity: 99%   Direction: 260°W
Pressure: 30.28"   Gusts: NA
Location:  43.88°N, 90.27°W
Report Text: KVOK 190758Z AUTO 26006KT 10SM SCT017 OVC024 M04/M04 A3028 RMK AO2 CIG 017V024 SLP271 T10441045
Loading
Personal Weather Stations






























Interactive Weather Map New forecast layout! Learn more

10-Day Weather Forecast

Advertisements
Track Severe Weather on mobile